createdAt,value
2018-11-25T00:00:41.451Z,0.00
2018-11-25T00:01:41.435Z,0.00
2018-11-25T00:02:41.432Z,0.00
2018-11-25T00:03:41.411Z,0.00
2018-11-25T00:04:41.443Z,0.00
2018-11-25T00:05:41.396Z,0.00
2018-11-25T00:06:42.609Z,0.00
2018-11-25T00:07:41.376Z,0.00
2018-11-25T00:08:41.370Z,0.00
2018-11-25T00:09:41.383Z,0.00
2018-11-25T00:10:41.348Z,0.00
2018-11-25T00:11:41.329Z,0.00
2018-11-25T00:12:41.313Z,0.00
2018-11-25T00:13:41.303Z,0.00
2018-11-25T00:14:41.296Z,0.00
2018-11-25T00:15:41.296Z,0.00
2018-11-25T00:16:41.282Z,0.00
2018-11-25T00:17:41.262Z,0.00
2018-11-25T00:18:41.246Z,0.00
2018-11-25T00:19:41.237Z,0.00
2018-11-25T00:20:41.236Z,0.00
2018-11-25T00:21:41.214Z,0.00
2018-11-25T00:22:41.204Z,0.00
2018-11-25T00:23:41.191Z,0.00
2018-11-25T00:24:41.224Z,0.00
2018-11-25T00:25:41.182Z,136.00
2018-11-25T00:26:41.158Z,136.00
2018-11-25T00:27:41.150Z,136.00
2018-11-25T00:28:41.137Z,132.00
2018-11-25T00:29:41.128Z,132.00
2018-11-25T00:30:41.127Z,0.00
2018-11-25T00:31:41.104Z,0.00
2018-11-25T00:32:41.100Z,0.00
2018-11-25T00:33:41.087Z,0.00
2018-11-25T00:34:41.075Z,0.00
2018-11-25T00:35:41.072Z,0.00
2018-11-25T00:36:41.055Z,0.00
2018-11-25T00:37:48.036Z,0.00
2018-11-25T00:38:42.030Z,0.00
2018-11-25T00:39:41.032Z,0.00
2018-11-25T00:40:41.017Z,0.00
2018-11-25T00:41:40.999Z,0.00
2018-11-25T00:42:40.983Z,0.00
2018-11-25T00:43:40.973Z,0.00
2018-11-25T00:44:40.964Z,0.00
2018-11-25T00:45:40.965Z,0.00
2018-11-25T00:46:40.940Z,0.00
2018-11-25T00:47:40.928Z,0.00
2018-11-25T00:48:40.917Z,0.00
2018-11-25T00:49:40.911Z,0.00
2018-11-25T00:50:40.923Z,0.00
2018-11-25T00:51:40.886Z,0.00
2018-11-25T00:52:40.874Z,0.00
2018-11-25T00:53:40.862Z,0.00
2018-11-25T00:54:40.859Z,0.00
2018-11-25T00:55:40.840Z,0.00
2018-11-25T00:56:40.841Z,0.00
2018-11-25T00:57:40.819Z,0.00
2018-11-25T00:58:40.808Z,0.00
2018-11-25T00:59:40.796Z,0.00
2018-11-25T01:00:40.785Z,0.00
2018-11-25T01:01:40.790Z,0.00
2018-11-25T01:02:40.776Z,0.00
2018-11-25T01:03:40.751Z,0.00
2018-11-25T01:04:40.742Z,0.00
2018-11-25T01:05:40.737Z,0.00
2018-11-25T01:06:40.733Z,0.00
2018-11-25T01:07:40.713Z,0.00
2018-11-25T01:08:40.711Z,0.00
2018-11-25T01:09:40.686Z,0.00
2018-11-25T01:10:40.675Z,0.00
2018-11-25T01:11:40.674Z,0.00
2018-11-25T01:12:40.656Z,0.00
2018-11-25T01:13:40.652Z,0.00
2018-11-25T01:14:40.630Z,0.00
2018-11-25T01:15:40.619Z,0.00
2018-11-25T01:16:40.619Z,0.00
2018-11-25T01:17:40.599Z,0.00
2018-11-25T01:18:40.588Z,0.00
2018-11-25T01:19:40.584Z,0.00
2018-11-25T01:20:40.569Z,0.00
2018-11-25T01:21:40.565Z,0.00
2018-11-25T01:22:40.546Z,0.00
2018-11-25T01:23:40.531Z,0.00
2018-11-25T01:24:40.525Z,0.00
2018-11-25T01:25:40.531Z,0.00
2018-11-25T01:26:40.544Z,0.00
2018-11-25T01:27:40.487Z,0.00
2018-11-25T01:28:40.477Z,0.00
2018-11-25T01:29:40.474Z,0.00
2018-11-25T01:30:40.458Z,0.00
2018-11-25T01:31:40.443Z,0.00
2018-11-25T01:32:40.445Z,0.00
2018-11-25T01:33:40.423Z,0.00
2018-11-25T01:34:40.411Z,0.00
2018-11-25T01:35:40.431Z,0.00
2018-11-25T01:36:40.389Z,0.00
2018-11-25T01:37:40.396Z,0.00
2018-11-25T01:38:40.369Z,0.00
2018-11-25T01:39:40.359Z,0.00
2018-11-25T01:40:40.346Z,0.00
2018-11-25T01:41:40.335Z,0.00
2018-11-25T01:42:40.338Z,0.00
2018-11-25T01:43:40.312Z,0.00
2018-11-25T01:44:40.302Z,0.00
2018-11-25T01:45:40.292Z,0.00
2018-11-25T01:46:40.281Z,0.00
2018-11-25T01:47:40.285Z,0.00
2018-11-25T01:48:40.273Z,0.00
2018-11-25T01:49:40.247Z,0.00
2018-11-25T01:50:40.236Z,0.00
2018-11-25T01:51:40.224Z,0.00
2018-11-25T01:52:40.231Z,0.00
2018-11-25T01:53:40.206Z,0.00
2018-11-25T01:54:40.191Z,0.00
2018-11-25T01:55:40.184Z,0.00
2018-11-25T01:56:40.172Z,0.00
2018-11-25T01:57:40.170Z,0.00
2018-11-25T01:58:40.165Z,0.00
2018-11-25T01:59:40.139Z,0.00
2018-11-25T02:00:40.128Z,0.00
2018-11-25T02:01:40.123Z,0.00
2018-11-25T02:02:40.116Z,0.00
2018-11-25T02:03:40.092Z,0.00
2018-11-25T02:04:40.083Z,0.00
2018-11-25T02:05:40.072Z,0.00
2018-11-25T02:06:40.064Z,0.00
2018-11-25T02:07:40.059Z,0.00
2018-11-25T02:08:40.037Z,0.00
2018-11-25T02:09:40.034Z,0.00
2018-11-25T02:10:40.015Z,0.00
2018-11-25T02:11:40.011Z,0.00
2018-11-25T02:12:40.007Z,0.00
2018-11-25T02:13:39.984Z,0.00
2018-11-25T02:14:39.971Z,0.00
2018-11-25T02:15:39.960Z,0.00
2018-11-25T02:16:39.953Z,0.00
2018-11-25T02:17:39.952Z,0.00
2018-11-25T02:18:39.926Z,0.00
2018-11-25T02:19:39.915Z,0.00
2018-11-25T02:20:39.908Z,0.00
2018-11-25T02:21:39.918Z,0.00
2018-11-25T02:22:39.921Z,0.00
2018-11-25T02:23:39.875Z,0.00
2018-11-25T02:24:39.861Z,0.00
2018-11-25T02:25:39.850Z,0.00
2018-11-25T02:26:39.845Z,0.00
2018-11-25T02:27:39.831Z,0.00
2018-11-25T02:28:39.831Z,0.00
2018-11-25T02:29:39.805Z,0.00
2018-11-25T02:30:39.797Z,0.00
2018-11-25T02:31:39.785Z,0.00
2018-11-25T02:32:39.773Z,0.00
2018-11-25T02:33:39.776Z,0.00
2018-11-25T02:34:39.755Z,0.00
2018-11-25T02:35:39.741Z,0.00
2018-11-25T02:36:39.734Z,0.00
2018-11-25T02:37:39.718Z,0.00
2018-11-25T02:38:39.725Z,0.00
2018-11-25T02:39:39.700Z,0.00
2018-11-25T02:40:39.692Z,0.00
2018-11-25T02:41:39.681Z,0.00
2018-11-25T02:42:39.663Z,0.00
2018-11-25T02:43:39.665Z,0.00
2018-11-25T02:44:39.656Z,0.00
2018-11-25T02:45:39.631Z,0.00
2018-11-25T02:46:39.622Z,0.00
2018-11-25T02:47:39.610Z,0.00
2018-11-25T02:48:39.608Z,0.00
2018-11-25T02:49:39.587Z,0.00
2018-11-25T02:50:39.577Z,0.00
2018-11-25T02:51:39.566Z,0.00
2018-11-25T02:52:39.552Z,0.00
2018-11-25T02:53:39.557Z,0.00
2018-11-25T02:54:39.530Z,0.00
2018-11-25T02:55:39.522Z,0.00
2018-11-25T02:56:39.510Z,0.00
2018-11-25T02:57:39.499Z,0.00
2018-11-25T02:58:39.502Z,0.00
2018-11-25T02:59:39.487Z,0.00
2018-11-25T03:00:39.465Z,0.00
2018-11-25T03:01:39.457Z,0.00
2018-11-25T03:02:39.443Z,0.00
2018-11-25T03:03:39.445Z,0.00
2018-11-25T03:04:39.422Z,0.00
2018-11-25T03:05:39.416Z,0.00
2018-11-25T03:06:39.402Z,0.00
2018-11-25T03:07:39.403Z,0.00
2018-11-25T03:08:39.402Z,0.00
2018-11-25T03:09:39.366Z,0.00
2018-11-25T03:10:39.360Z,0.00
2018-11-25T03:11:39.344Z,0.00
2018-11-25T03:12:39.340Z,0.00
2018-11-25T03:13:39.336Z,0.00
2018-11-25T03:14:39.311Z,0.00
2018-11-25T03:15:39.300Z,0.00
2018-11-25T03:16:39.290Z,0.00
2018-11-25T03:17:39.311Z,0.00
2018-11-25T03:18:39.284Z,0.00
2018-11-25T03:19:39.256Z,0.00
2018-11-25T03:20:39.245Z,0.00
2018-11-25T03:21:39.235Z,0.00
2018-11-25T03:22:39.228Z,0.00
2018-11-25T03:23:39.224Z,0.00
2018-11-25T03:24:39.206Z,0.00
2018-11-25T03:25:39.190Z,0.00
2018-11-25T03:26:39.179Z,0.00
2018-11-25T03:27:39.171Z,0.00
2018-11-25T03:28:39.191Z,0.00
2018-11-25T03:29:39.147Z,0.00
2018-11-25T03:30:39.154Z,0.00
2018-11-25T03:31:39.126Z,0.00
2018-11-25T03:32:39.112Z,0.00
2018-11-25T03:33:39.102Z,0.00
2018-11-25T03:34:39.107Z,0.00
2018-11-25T03:35:39.080Z,0.00
2018-11-25T03:36:39.070Z,0.00
2018-11-25T03:37:39.064Z,0.00
2018-11-25T03:38:39.047Z,0.00
2018-11-25T03:39:39.051Z,0.00
2018-11-25T03:40:39.028Z,0.00
2018-11-25T03:41:39.017Z,0.00
2018-11-25T03:42:39.003Z,0.00
2018-11-25T03:43:38.995Z,0.00
2018-11-25T03:44:38.998Z,0.00
2018-11-25T03:45:38.969Z,0.00
2018-11-25T03:46:38.962Z,0.00
2018-11-25T03:47:38.948Z,0.00
2018-11-25T03:48:38.937Z,0.00
2018-11-25T03:49:38.937Z,0.00
2018-11-25T03:50:38.914Z,0.00
2018-11-25T03:51:38.902Z,0.00
2018-11-25T03:52:38.894Z,0.00
2018-11-25T03:53:38.902Z,0.00
2018-11-25T03:54:38.897Z,0.00
2018-11-25T03:55:38.867Z,0.00
2018-11-25T03:56:38.852Z,0.00
2018-11-25T03:57:38.842Z,0.00
2018-11-25T03:58:38.839Z,0.00
2018-11-25T03:59:38.820Z,0.00
2018-11-25T04:00:38.816Z,0.00
2018-11-25T04:01:38.793Z,0.00
2018-11-25T04:02:38.783Z,0.00
2018-11-25T04:03:38.773Z,0.00
2018-11-25T04:04:38.776Z,0.00
2018-11-25T04:05:38.761Z,0.00
2018-11-25T04:06:38.741Z,0.00
2018-11-25T04:07:38.727Z,0.00
2018-11-25T04:08:38.732Z,0.00
2018-11-25T04:09:38.705Z,0.00
2018-11-25T04:10:38.713Z,0.00
2018-11-25T04:11:38.687Z,0.00
2018-11-25T04:12:38.683Z,0.00
2018-11-25T04:13:38.661Z,0.00
2018-11-25T04:14:38.650Z,0.00
2018-11-25T04:15:38.655Z,0.00
2018-11-25T04:16:38.642Z,0.00
2018-11-25T04:17:38.619Z,0.00
2018-11-25T04:18:38.608Z,0.00
2018-11-25T04:19:38.596Z,0.00
2018-11-25T04:20:38.595Z,0.00
2018-11-25T04:21:38.572Z,0.00
2018-11-25T04:22:38.566Z,0.00
2018-11-25T04:23:38.552Z,0.00
2018-11-25T04:24:38.546Z,0.00
2018-11-25T04:25:38.562Z,0.00
2018-11-25T04:26:38.520Z,0.00
2018-11-25T04:27:38.512Z,0.00
2018-11-25T04:28:38.498Z,0.00
2018-11-25T04:29:38.488Z,0.00
2018-11-25T04:30:38.491Z,0.00
2018-11-25T04:31:38.466Z,0.00
2018-11-25T04:32:38.456Z,0.00
2018-11-25T04:33:38.441Z,0.00
2018-11-25T04:34:38.437Z,0.00
2018-11-25T04:35:38.431Z,0.00
2018-11-25T04:36:38.411Z,0.00
2018-11-25T04:37:38.401Z,0.00
2018-11-25T04:38:38.386Z,0.00
2018-11-25T04:39:38.401Z,0.00
2018-11-25T04:40:38.384Z,0.00
2018-11-25T04:41:38.370Z,0.00
2018-11-25T04:42:38.342Z,0.00
2018-11-25T04:43:38.331Z,0.00
2018-11-25T04:44:38.321Z,0.00
2018-11-25T04:45:38.323Z,0.00
2018-11-25T04:46:38.303Z,0.00
2018-11-25T04:47:38.290Z,0.00
2018-11-25T04:48:38.277Z,0.00
2018-11-25T04:49:38.268Z,0.00
2018-11-25T04:50:38.274Z,0.00
2018-11-25T04:51:38.248Z,0.00
2018-11-25T04:52:38.303Z,0.00
2018-11-25T04:53:38.220Z,0.00
2018-11-25T04:54:38.212Z,0.00
2018-11-25T04:55:38.213Z,0.00
2018-11-25T04:56:38.188Z,0.00
2018-11-25T04:57:38.183Z,0.00
2018-11-25T04:58:38.181Z,0.00
2018-11-25T04:59:38.155Z,0.00
2018-11-25T05:00:38.184Z,0.00
2018-11-25T05:01:38.132Z,0.00
2018-11-25T05:02:38.141Z,0.00
2018-11-25T05:03:38.112Z,0.00
2018-11-25T05:04:38.110Z,0.00
2018-11-25T05:05:38.115Z,0.00
2018-11-25T05:06:38.079Z,0.00
2018-11-25T05:07:38.069Z,0.00
2018-11-25T05:08:38.063Z,0.00
2018-11-25T05:09:38.043Z,0.00
2018-11-25T05:10:38.033Z,0.00
2018-11-25T05:11:38.035Z,0.00
2018-11-25T05:12:38.037Z,0.00
2018-11-25T05:13:38.002Z,0.00
2018-11-25T05:14:37.991Z,0.00
2018-11-25T05:15:37.981Z,0.00
2018-11-25T05:16:37.983Z,0.00
2018-11-25T05:17:37.957Z,0.00
2018-11-25T05:18:37.945Z,0.00
2018-11-25T05:19:37.935Z,0.00
2018-11-25T05:20:37.923Z,0.00
2018-11-25T05:21:37.926Z,0.00
2018-11-25T05:22:37.901Z,0.00
2018-11-25T05:23:37.895Z,0.00
2018-11-25T05:24:37.881Z,0.00
2018-11-25T05:25:37.888Z,0.00
2018-11-25T05:26:37.870Z,0.00
2018-11-25T05:27:37.850Z,0.00
2018-11-25T05:28:37.838Z,0.00
2018-11-25T05:29:37.824Z,0.00
2018-11-25T05:30:37.819Z,0.00
2018-11-25T05:31:37.829Z,0.00
2018-11-25T05:32:37.793Z,0.00
2018-11-25T05:33:37.784Z,0.00
2018-11-25T05:34:37.779Z,0.00
2018-11-25T05:35:37.781Z,0.00
2018-11-25T05:36:37.747Z,0.00
2018-11-25T05:37:37.748Z,0.00
2018-11-25T05:38:37.749Z,0.00
2018-11-25T05:39:37.714Z,0.00
2018-11-25T05:40:37.706Z,0.00
2018-11-25T05:41:37.693Z,0.00
2018-11-25T05:42:37.692Z,0.00
2018-11-25T05:43:37.681Z,0.00
2018-11-25T05:44:37.661Z,0.00
2018-11-25T05:45:37.654Z,0.00
2018-11-25T05:46:37.638Z,0.00
2018-11-25T05:47:37.636Z,0.00
2018-11-25T05:48:37.632Z,0.00
2018-11-25T05:49:37.604Z,0.00
2018-11-25T05:50:37.607Z,0.00
2018-11-25T05:51:37.629Z,0.00
2018-11-25T05:52:37.588Z,0.00
2018-11-25T05:53:37.564Z,0.00
2018-11-25T05:54:37.549Z,0.00
2018-11-25T05:55:37.539Z,0.00
2018-11-25T05:56:37.536Z,0.00
2018-11-25T05:57:37.533Z,0.00
2018-11-25T05:58:37.527Z,0.00
2018-11-25T05:59:37.495Z,0.00
2018-11-25T06:00:37.486Z,0.00
2018-11-25T06:01:37.489Z,0.00
2018-11-25T06:02:37.475Z,0.00
2018-11-25T06:03:37.450Z,0.00
2018-11-25T06:04:37.453Z,0.00
2018-11-25T06:05:37.433Z,0.00
2018-11-25T06:06:37.417Z,0.00
2018-11-25T06:07:37.445Z,0.00
2018-11-25T06:08:37.398Z,0.00
2018-11-25T06:09:37.385Z,0.00
2018-11-25T06:10:37.373Z,0.00
2018-11-25T06:11:37.379Z,0.00
2018-11-25T06:12:37.369Z,0.00
2018-11-25T06:13:37.344Z,0.00
2018-11-25T06:14:37.327Z,0.00
2018-11-25T06:15:37.318Z,0.00
2018-11-25T06:16:37.306Z,0.00
2018-11-25T06:17:37.308Z,0.00
2018-11-25T06:18:37.289Z,0.00
2018-11-25T06:19:37.282Z,0.00
2018-11-25T06:20:37.264Z,0.00
2018-11-25T06:21:37.297Z,0.00
2018-11-25T06:22:37.251Z,0.00
2018-11-25T06:23:37.229Z,0.00
2018-11-25T06:24:37.221Z,0.00
2018-11-25T06:25:37.208Z,0.00
2018-11-25T06:26:37.197Z,0.00
2018-11-25T06:27:38.297Z,0.00
2018-11-25T06:28:37.176Z,0.00
2018-11-25T06:29:37.166Z,0.00
2018-11-25T06:30:37.152Z,0.00
2018-11-25T06:31:37.148Z,0.00
2018-11-25T06:32:37.147Z,0.00
2018-11-25T06:33:37.119Z,0.00
2018-11-25T06:34:37.122Z,0.00
2018-11-25T06:35:37.098Z,0.00
2018-11-25T06:36:37.092Z,0.00
2018-11-25T06:37:37.097Z,0.00
2018-11-25T06:38:37.065Z,0.00
2018-11-25T06:39:37.052Z,0.00
2018-11-25T06:40:37.042Z,0.00
2018-11-25T06:41:37.031Z,0.00
2018-11-25T06:42:37.032Z,0.00
2018-11-25T06:43:37.010Z,0.00
2018-11-25T06:44:37.020Z,0.00
2018-11-25T06:45:36.987Z,0.00
2018-11-25T06:46:36.976Z,0.00
2018-11-25T06:47:36.984Z,0.00
2018-11-25T06:48:36.968Z,0.00
2018-11-25T06:49:36.950Z,0.00
2018-11-25T06:50:36.936Z,0.00
2018-11-25T06:51:36.923Z,0.00
2018-11-25T06:52:36.927Z,0.00
2018-11-25T06:53:36.901Z,0.00
2018-11-25T06:54:36.888Z,0.00
2018-11-25T06:55:36.882Z,0.00
2018-11-25T06:56:36.866Z,0.00
2018-11-25T06:57:36.901Z,0.00
2018-11-25T06:58:36.861Z,0.00
2018-11-25T06:59:36.836Z,0.00
2018-11-25T07:00:36.824Z,0.00
2018-11-25T07:01:36.811Z,0.00
2018-11-25T07:02:36.800Z,0.00
2018-11-25T07:03:36.803Z,0.00
2018-11-25T07:04:36.778Z,0.00
2018-11-25T07:05:36.785Z,0.00
2018-11-25T07:06:36.758Z,0.00
2018-11-25T07:07:36.747Z,0.00
2018-11-25T07:08:36.747Z,0.00
2018-11-25T07:09:36.722Z,0.00
2018-11-25T07:10:36.717Z,0.00
2018-11-25T07:11:36.706Z,0.00
2018-11-25T07:12:36.694Z,0.00
2018-11-25T07:13:36.696Z,0.00
2018-11-25T07:14:36.668Z,0.00
2018-11-25T07:15:36.658Z,0.00
2018-11-25T07:16:36.646Z,0.00
2018-11-25T07:17:36.637Z,0.00
2018-11-25T07:18:36.634Z,0.00
2018-11-25T07:19:36.613Z,0.00
2018-11-25T07:20:36.613Z,0.00
2018-11-25T07:21:36.597Z,0.00
2018-11-25T07:22:36.588Z,0.00
2018-11-25T07:23:36.582Z,0.00
2018-11-25T07:24:36.559Z,0.00
2018-11-25T07:25:36.545Z,0.00
2018-11-25T07:26:36.535Z,0.00
2018-11-25T07:27:36.525Z,0.00
2018-11-25T07:28:36.524Z,0.00
2018-11-25T07:29:36.505Z,0.00
2018-11-25T07:30:36.491Z,0.00
2018-11-25T07:31:36.480Z,0.00
2018-11-25T07:32:36.472Z,0.00
2018-11-25T07:33:36.487Z,0.00
2018-11-25T07:34:36.463Z,4.00
2018-11-25T07:35:36.437Z,4.00
2018-11-25T07:36:36.431Z,4.00
2018-11-25T07:37:36.414Z,4.00
2018-11-25T07:38:36.416Z,4.00
2018-11-25T07:39:36.398Z,4.00
2018-11-25T07:40:36.401Z,4.00
2018-11-25T07:41:36.373Z,4.00
2018-11-25T07:42:36.368Z,4.00
2018-11-25T07:43:36.380Z,4.00
2018-11-25T07:44:36.341Z,0.00
2018-11-25T07:45:36.334Z,0.00
2018-11-25T07:46:36.315Z,0.00
2018-11-25T07:47:36.304Z,0.00
2018-11-25T07:48:36.809Z,0.00
2018-11-25T07:49:36.283Z,0.00
2018-11-25T07:50:36.272Z,4.00
2018-11-25T07:51:36.267Z,4.00
2018-11-25T07:52:36.249Z,4.00
2018-11-25T07:53:36.277Z,4.00
2018-11-25T07:54:36.227Z,4.00
2018-11-25T07:55:36.216Z,4.00
2018-11-25T07:56:36.205Z,4.00
2018-11-25T07:57:36.197Z,4.00
2018-11-25T07:58:36.199Z,4.00
2018-11-25T07:59:36.174Z,4.00
2018-11-25T08:00:36.162Z,4.00
2018-11-25T08:01:36.151Z,4.00
2018-11-25T08:02:41.375Z,4.00
2018-11-25T08:03:37.139Z,4.00
2018-11-25T08:04:36.117Z,4.00
2018-11-25T08:05:36.110Z,4.00
2018-11-25T08:06:36.095Z,4.00
2018-11-25T08:07:36.086Z,4.00
2018-11-25T08:08:36.085Z,4.00
2018-11-25T08:09:36.066Z,4.00
2018-11-25T08:10:36.054Z,4.00
2018-11-25T08:11:36.040Z,8.00
2018-11-25T08:12:36.029Z,4.00
2018-11-25T08:13:36.029Z,4.00
2018-11-25T08:14:36.015Z,4.00
2018-11-25T08:15:35.996Z,4.00
2018-11-25T08:16:36.002Z,4.00
2018-11-25T08:17:35.978Z,4.00
2018-11-25T08:18:35.977Z,4.00
2018-11-25T08:19:35.953Z,4.00
2018-11-25T08:20:35.960Z,8.00
2018-11-25T08:21:35.932Z,8.00
2018-11-25T08:22:35.919Z,4.00
2018-11-25T08:23:35.919Z,4.00
2018-11-25T08:24:35.898Z,4.00
2018-11-25T08:25:35.888Z,8.00
2018-11-25T08:26:35.877Z,8.00
2018-11-25T08:27:35.864Z,8.00
2018-11-25T08:28:35.880Z,8.00
2018-11-25T08:29:35.842Z,8.00
2018-11-25T08:30:35.832Z,4.00
2018-11-25T08:31:35.823Z,4.00
2018-11-25T08:32:35.808Z,4.00
2018-11-25T08:33:35.800Z,4.00
2018-11-25T08:34:35.800Z,4.00
2018-11-25T08:35:35.787Z,8.00
2018-11-25T08:36:35.766Z,8.00
2018-11-25T08:37:35.756Z,8.00
2018-11-25T08:38:35.743Z,8.00
2018-11-25T08:39:35.783Z,12.00
2018-11-25T08:40:35.723Z,8.00
2018-11-25T08:41:35.722Z,8.00
2018-11-25T08:42:35.698Z,8.00
2018-11-25T08:43:35.688Z,8.00
2018-11-25T08:44:35.688Z,8.00
2018-11-25T08:45:35.666Z,8.00
2018-11-25T08:46:35.661Z,8.00
2018-11-25T08:47:35.641Z,12.00
2018-11-25T08:48:35.631Z,12.00
2018-11-25T08:49:35.635Z,12.00
2018-11-25T08:50:35.610Z,8.00
2018-11-25T08:51:35.601Z,12.00
2018-11-25T08:52:35.588Z,8.00
2018-11-25T08:53:35.592Z,12.00
2018-11-25T08:54:35.577Z,8.00
2018-11-25T08:55:35.555Z,8.00
2018-11-25T08:56:35.549Z,8.00
2018-11-25T08:57:35.533Z,8.00
2018-11-25T08:58:35.523Z,12.00
2018-11-25T08:59:35.529Z,12.00
2018-11-25T09:00:35.501Z,8.00
2018-11-25T09:01:35.488Z,8.00
2018-11-25T09:02:35.489Z,12.00
2018-11-25T09:03:35.471Z,8.00
2018-11-25T09:04:35.474Z,12.00
2018-11-25T09:05:35.444Z,12.00
2018-11-25T09:06:35.438Z,12.00
2018-11-25T09:07:35.424Z,12.00
2018-11-25T09:08:35.415Z,12.00
2018-11-25T09:09:35.414Z,12.00
2018-11-25T09:10:35.392Z,12.00
2018-11-25T09:11:35.380Z,12.00
2018-11-25T09:12:35.367Z,12.00
2018-11-25T09:13:35.356Z,12.00
2018-11-25T09:14:35.356Z,8.00
2018-11-25T09:15:35.341Z,12.00
2018-11-25T09:16:35.324Z,12.00
2018-11-25T09:17:35.315Z,8.00
2018-11-25T09:18:35.302Z,8.00
2018-11-25T09:19:35.300Z,8.00
2018-11-25T09:20:35.279Z,8.00
2018-11-25T09:21:35.269Z,12.00
2018-11-25T09:22:35.267Z,12.00
2018-11-25T09:23:35.248Z,12.00
2018-11-25T09:24:35.251Z,12.00
2018-11-25T09:25:35.235Z,12.00
2018-11-25T09:26:35.214Z,12.00
2018-11-25T09:27:35.203Z,12.00
2018-11-25T09:28:35.200Z,8.00
2018-11-25T09:29:35.190Z,12.00
2018-11-25T09:30:35.168Z,8.00
2018-11-25T09:31:35.160Z,12.00
2018-11-25T09:32:35.156Z,12.00
2018-11-25T09:33:35.135Z,12.00
2018-11-25T09:34:35.137Z,12.00
2018-11-25T09:35:35.117Z,12.00
2018-11-25T09:36:35.104Z,16.00
2018-11-25T09:37:35.095Z,12.00
2018-11-25T09:38:35.081Z,16.00
2018-11-25T09:39:35.082Z,16.00
2018-11-25T09:40:35.066Z,16.00
2018-11-25T09:41:35.052Z,16.00
2018-11-25T09:42:35.040Z,16.00
2018-11-25T09:43:35.026Z,12.00
2018-11-25T09:44:35.028Z,16.00
2018-11-25T09:45:35.010Z,16.00
2018-11-25T09:46:42.434Z,16.00
2018-11-25T09:47:35.981Z,20.00
2018-11-25T09:48:35.034Z,16.00
2018-11-25T09:49:34.972Z,20.00
2018-11-25T09:50:34.949Z,20.00
2018-11-25T09:51:34.940Z,16.00
2018-11-25T09:52:34.928Z,16.00
2018-11-25T09:53:34.915Z,16.00
2018-11-25T09:54:34.914Z,16.00
2018-11-25T09:55:34.894Z,20.00
2018-11-25T09:56:34.885Z,20.00
2018-11-25T09:57:35.048Z,24.00
2018-11-25T09:58:34.901Z,24.00
2018-11-25T09:59:34.864Z,24.00
2018-11-25T10:00:34.838Z,20.00
2018-11-25T10:01:34.829Z,20.00
2018-11-25T10:02:34.822Z,24.00
2018-11-25T10:03:34.813Z,20.00
2018-11-25T10:04:34.819Z,24.00
2018-11-25T10:05:34.784Z,24.00
2018-11-25T10:06:34.776Z,24.00
2018-11-25T10:07:34.762Z,20.00
2018-11-25T10:08:34.760Z,24.00
2018-11-25T10:09:34.744Z,24.00
2018-11-25T10:10:34.752Z,20.00
2018-11-25T10:11:34.730Z,20.00
2018-11-25T10:12:34.709Z,24.00
2018-11-25T10:13:34.695Z,28.00
2018-11-25T10:14:34.689Z,24.00
2018-11-25T10:15:34.689Z,28.00
2018-11-25T10:16:34.667Z,28.00
2018-11-25T10:17:34.651Z,28.00
2018-11-25T10:18:34.641Z,28.00
2018-11-25T10:19:34.629Z,28.00
2018-11-25T10:20:34.633Z,28.00
2018-11-25T10:21:34.612Z,28.00
2018-11-25T10:22:34.597Z,28.00
2018-11-25T10:23:34.588Z,24.00
2018-11-25T10:24:34.576Z,20.00
2018-11-25T10:25:34.574Z,24.00
2018-11-25T10:26:34.596Z,20.00
2018-11-25T10:27:34.593Z,20.00
2018-11-25T10:28:34.536Z,24.00
2018-11-25T10:29:34.519Z,20.00
2018-11-25T10:30:34.543Z,20.00
2018-11-25T10:31:34.516Z,20.00
2018-11-25T10:32:34.486Z,20.00
2018-11-25T10:33:34.479Z,20.00
2018-11-25T10:34:34.484Z,20.00
2018-11-25T10:35:34.465Z,20.00
2018-11-25T10:36:34.443Z,20.00
2018-11-25T10:37:34.430Z,20.00
2018-11-25T10:38:34.421Z,16.00
2018-11-25T10:39:34.411Z,20.00
2018-11-25T10:40:34.412Z,20.00
2018-11-25T10:41:34.388Z,16.00
2018-11-25T10:42:34.377Z,16.00
2018-11-25T10:43:34.365Z,16.00
2018-11-25T10:44:34.363Z,20.00
2018-11-25T10:45:34.355Z,20.00
2018-11-25T10:46:34.335Z,16.00
2018-11-25T10:47:34.327Z,20.00
2018-11-25T10:48:34.310Z,16.00
2018-11-25T10:49:34.310Z,16.00
2018-11-25T10:50:34.303Z,16.00
2018-11-25T10:51:34.278Z,16.00
2018-11-25T10:52:34.295Z,16.00
2018-11-25T10:53:34.264Z,16.00
2018-11-25T10:54:34.251Z,16.00
2018-11-25T10:55:34.246Z,16.00
2018-11-25T10:56:34.240Z,16.00
2018-11-25T10:57:34.304Z,20.00
2018-11-25T10:58:34.201Z,16.00
2018-11-25T10:59:34.198Z,20.00
2018-11-25T11:00:34.191Z,24.00
2018-11-25T11:01:34.175Z,24.00
2018-11-25T11:02:34.157Z,20.00
2018-11-25T11:03:34.161Z,20.00
2018-11-25T11:04:34.142Z,20.00
2018-11-25T11:05:34.133Z,16.00
2018-11-25T11:06:34.113Z,16.00
2018-11-25T11:07:34.126Z,16.00
2018-11-25T11:08:34.097Z,16.00
2018-11-25T11:09:34.837Z,12.00
2018-11-25T11:10:34.080Z,12.00
2018-11-25T11:11:34.057Z,16.00
2018-11-25T11:12:34.049Z,16.00
2018-11-25T11:13:34.051Z,12.00
2018-11-25T11:14:34.027Z,16.00
2018-11-25T11:15:34.026Z,12.00
2018-11-25T11:16:34.002Z,12.00
2018-11-25T11:17:33.992Z,12.00
2018-11-25T11:18:33.982Z,12.00
2018-11-25T11:19:33.969Z,12.00
2018-11-25T11:20:34.002Z,12.00
2018-11-25T11:21:33.950Z,12.00
2018-11-25T11:22:33.935Z,16.00
2018-11-25T11:23:33.926Z,16.00
2018-11-25T11:24:33.965Z,16.00
2018-11-25T11:25:33.904Z,12.00
2018-11-25T11:26:33.904Z,16.00
2018-11-25T11:27:33.888Z,12.00
2018-11-25T11:28:33.868Z,12.00
2018-11-25T11:29:33.880Z,12.00
2018-11-25T11:30:33.862Z,12.00
2018-11-25T11:31:33.881Z,12.00
2018-11-25T11:32:33.873Z,12.00
2018-11-25T11:33:33.830Z,8.00
2018-11-25T11:34:33.826Z,8.00
2018-11-25T11:35:33.820Z,12.00
2018-11-25T11:36:33.798Z,12.00
2018-11-25T11:37:33.772Z,12.00
2018-11-25T11:38:33.767Z,12.00
2018-11-25T11:39:33.750Z,8.00
2018-11-25T11:40:33.754Z,8.00
2018-11-25T11:41:33.749Z,12.00
2018-11-25T11:42:33.717Z,12.00
2018-11-25T11:43:33.713Z,8.00
2018-11-25T11:44:33.693Z,12.00
2018-11-25T11:45:33.681Z,8.00
2018-11-25T11:46:33.727Z,8.00
2018-11-25T11:47:33.660Z,8.00
2018-11-25T11:48:33.653Z,8.00
2018-11-25T11:49:33.643Z,8.00
2018-11-25T11:50:33.626Z,8.00
2018-11-25T11:51:33.633Z,8.00
2018-11-25T11:52:33.606Z,8.00
2018-11-25T11:53:33.616Z,8.00
2018-11-25T11:54:33.598Z,8.00
2018-11-25T11:55:33.571Z,8.00
2018-11-25T11:56:40.253Z,8.00
2018-11-25T11:57:34.549Z,8.00
2018-11-25T11:58:33.545Z,8.00
2018-11-25T11:59:33.547Z,8.00
2018-11-25T12:00:33.515Z,8.00
2018-11-25T12:01:33.516Z,4.00
2018-11-25T12:02:33.494Z,4.00
2018-11-25T12:03:33.487Z,4.00
2018-11-25T12:04:33.473Z,4.00
2018-11-25T12:05:33.462Z,4.00
2018-11-25T12:06:33.479Z,4.00
2018-11-25T12:07:33.437Z,4.00
2018-11-25T12:08:33.427Z,4.00
2018-11-25T12:09:33.423Z,4.00
2018-11-25T12:10:33.407Z,4.00
2018-11-25T12:11:33.411Z,4.00
2018-11-25T12:12:33.385Z,8.00
2018-11-25T12:13:33.377Z,8.00
2018-11-25T12:14:33.361Z,8.00
2018-11-25T12:15:33.351Z,8.00
2018-11-25T12:16:33.357Z,8.00
2018-11-25T12:17:33.331Z,8.00
2018-11-25T12:18:33.317Z,8.00
2018-11-25T12:19:33.325Z,8.00
2018-11-25T12:20:33.296Z,8.00
2018-11-25T12:21:33.301Z,8.00
2018-11-25T12:22:33.284Z,8.00
2018-11-25T12:23:33.264Z,8.00
2018-11-25T12:24:33.253Z,8.00
2018-11-25T12:25:33.242Z,8.00
2018-11-25T12:26:33.266Z,12.00
2018-11-25T12:27:33.218Z,8.00
2018-11-25T12:28:33.224Z,12.00
2018-11-25T12:29:33.211Z,8.00
2018-11-25T12:30:33.185Z,8.00
2018-11-25T12:31:33.187Z,8.00
2018-11-25T12:32:33.182Z,12.00
2018-11-25T12:33:33.165Z,8.00
2018-11-25T12:34:33.141Z,12.00
2018-11-25T12:35:33.131Z,12.00
2018-11-25T12:36:33.141Z,12.00
2018-11-25T12:37:36.215Z,12.00
2018-11-25T12:38:33.099Z,12.00
2018-11-25T12:39:33.106Z,12.00
2018-11-25T12:40:33.074Z,12.00
2018-11-25T12:41:33.064Z,12.00
2018-11-25T12:42:33.065Z,8.00
2018-11-25T12:43:33.042Z,12.00
2018-11-25T12:44:33.034Z,12.00
2018-11-25T12:45:33.042Z,12.00
2018-11-25T12:46:33.012Z,12.00
2018-11-25T12:47:33.052Z,12.00
2018-11-25T12:48:32.991Z,12.00
2018-11-25T12:49:32.998Z,8.00
2018-11-25T12:50:32.966Z,12.00
2018-11-25T12:51:32.972Z,12.00
2018-11-25T12:52:32.954Z,8.00
2018-11-25T12:53:32.930Z,8.00
2018-11-25T12:54:32.921Z,8.00
2018-11-25T12:55:32.910Z,8.00
2018-11-25T12:56:32.900Z,8.00
2018-11-25T12:57:32.902Z,12.00
2018-11-25T12:58:32.879Z,12.00
2018-11-25T12:59:32.865Z,8.00
2018-11-25T13:00:32.862Z,8.00
2018-11-25T13:01:32.846Z,12.00
2018-11-25T13:02:32.868Z,12.00
2018-11-25T13:03:32.824Z,8.00
2018-11-25T13:04:32.811Z,12.00
2018-11-25T13:05:32.799Z,12.00
2018-11-25T13:06:32.949Z,8.00
2018-11-25T13:07:32.793Z,12.00
2018-11-25T13:08:32.784Z,8.00
2018-11-25T13:09:32.782Z,12.00
2018-11-25T13:10:32.756Z,8.00
2018-11-25T13:11:32.733Z,8.00